createdAt,value
2019-05-26T00:00:32.499Z,14.59
2019-05-26T00:04:53.664Z,14.66
2019-05-26T00:09:13.632Z,14.57
2019-05-26T00:13:36.922Z,14.52
2019-05-26T00:17:57.480Z,14.47
2019-05-26T00:22:17.945Z,14.39
2019-05-26T00:26:38.634Z,14.46
2019-05-26T00:30:59.034Z,14.40
2019-05-26T00:35:19.777Z,14.38
2019-05-26T00:39:40.270Z,14.44
2019-05-26T00:44:00.919Z,14.45
2019-05-26T00:48:21.344Z,14.40
2019-05-26T00:52:42.008Z,14.38
2019-05-26T00:57:03.200Z,14.41
2019-05-26T01:01:23.233Z,14.33
2019-05-26T01:05:43.607Z,14.32
2019-05-26T01:10:05.003Z,14.25
2019-05-26T01:14:25.796Z,14.10
2019-05-26T01:18:46.076Z,14.11
2019-05-26T01:23:06.974Z,14.07
2019-05-26T01:27:27.274Z,14.03
2019-05-26T01:31:48.472Z,14.08
2019-05-26T01:36:09.088Z,13.97
2019-05-26T01:40:37.404Z,13.95
2019-05-26T01:44:57.323Z,13.91
2019-05-26T01:49:17.724Z,13.87
2019-05-26T01:53:38.020Z,13.88
2019-05-26T01:57:58.142Z,13.83
2019-05-26T02:02:18.193Z,13.80
2019-05-26T02:06:38.816Z,13.82
2019-05-26T02:10:59.458Z,13.77
2019-05-26T02:15:20.625Z,13.78
2019-05-26T02:19:42.353Z,13.72
2019-05-26T02:24:02.798Z,13.78
2019-05-26T02:28:22.801Z,13.86
2019-05-26T02:32:43.649Z,13.87
2019-05-26T02:37:04.696Z,14.01
2019-05-26T02:41:25.260Z,13.96
2019-05-26T02:45:45.687Z,14.02
2019-05-26T02:50:06.830Z,14.13
2019-05-26T02:54:27.471Z,14.10
2019-05-26T02:58:48.023Z,14.14
2019-05-26T03:03:08.591Z,14.19
2019-05-26T03:07:31.020Z,14.24
2019-05-26T03:11:52.960Z,14.31
2019-05-26T03:16:15.196Z,14.31
2019-05-26T03:20:37.616Z,14.28
2019-05-26T03:24:59.838Z,14.27
2019-05-26T03:29:20.366Z,14.25
2019-05-26T03:33:40.654Z,14.22
2019-05-26T03:38:01.344Z,14.09
2019-05-26T03:42:21.787Z,14.20
2019-05-26T03:46:42.243Z,14.14
2019-05-26T03:51:02.748Z,14.18
2019-05-26T03:55:23.365Z,14.19
2019-05-26T03:59:44.001Z,14.07
2019-05-26T04:04:04.838Z,14.15
2019-05-26T04:08:25.298Z,14.08
2019-05-26T04:12:45.812Z,14.08
2019-05-26T04:17:06.437Z,13.99
2019-05-26T04:21:27.037Z,14.06
2019-05-26T04:25:47.939Z,13.99
2019-05-26T04:30:08.358Z,13.97
2019-05-26T04:34:29.113Z,14.07
2019-05-26T04:38:49.258Z,14.06
2019-05-26T04:43:14.429Z,14.12
2019-05-26T04:47:32.552Z,14.19
2019-05-26T04:51:53.057Z,14.13
2019-05-26T04:56:13.964Z,14.23
2019-05-26T05:00:34.622Z,14.19
2019-05-26T05:04:55.335Z,14.16
2019-05-26T05:09:16.162Z,14.44
2019-05-26T05:13:37.348Z,14.38
2019-05-26T05:17:57.478Z,14.49
2019-05-26T05:22:17.596Z,14.70
2019-05-26T05:26:37.880Z,14.89
2019-05-26T05:30:58.271Z,14.96
2019-05-26T05:35:18.906Z,15.08
2019-05-26T05:39:39.470Z,15.17
2019-05-26T05:43:59.612Z,15.13
2019-05-26T05:48:20.253Z,15.23
2019-05-26T05:52:41.176Z,15.38
2019-05-26T05:57:01.731Z,15.53
2019-05-26T06:01:22.504Z,15.73
2019-05-26T06:05:43.004Z,15.70
2019-05-26T06:10:05.491Z,15.89
2019-05-26T06:14:26.174Z,15.92
2019-05-26T06:18:47.219Z,15.86
2019-05-26T06:23:08.139Z,16.03
2019-05-26T06:27:28.650Z,16.17
2019-05-26T06:31:49.390Z,16.32
2019-05-26T06:36:10.040Z,16.44
2019-05-26T06:40:30.131Z,16.66
2019-05-26T06:44:53.851Z,16.62
2019-05-26T06:49:12.476Z,16.72
2019-05-26T06:53:36.988Z,16.79
2019-05-26T06:57:55.760Z,17.02
2019-05-26T07:02:16.581Z,17.18
2019-05-26T07:06:37.033Z,17.38
2019-05-26T07:10:57.850Z,17.53
2019-05-26T07:15:18.428Z,17.68
2019-05-26T07:19:39.036Z,17.93
2019-05-26T07:23:59.623Z,18.12
2019-05-26T07:28:20.434Z,18.08
2019-05-26T07:32:41.038Z,18.43
2019-05-26T07:37:01.611Z,18.72
2019-05-26T07:41:22.187Z,18.73
2019-05-26T07:45:43.085Z,18.91
2019-05-26T07:50:04.111Z,18.94
2019-05-26T07:54:26.071Z,19.35
2019-05-26T07:58:46.657Z,19.66
2019-05-26T08:03:07.094Z,19.78
2019-05-26T08:07:27.211Z,19.83
2019-05-26T08:11:47.647Z,19.84
2019-05-26T08:16:08.392Z,19.78
2019-05-26T08:20:29.646Z,19.66
2019-05-26T08:24:49.770Z,19.69
2019-05-26T08:29:10.931Z,19.64
2019-05-26T08:33:31.722Z,19.73
2019-05-26T08:37:52.595Z,19.83
2019-05-26T08:42:26.411Z,19.97
2019-05-26T08:46:35.527Z,20.20
2019-05-26T08:50:55.995Z,20.33
2019-05-26T08:55:16.550Z,20.66
2019-05-26T08:59:37.663Z,20.61
2019-05-26T09:03:58.280Z,21.01
2019-05-26T09:08:18.730Z,21.07
2019-05-26T09:12:39.525Z,20.95
2019-05-26T09:16:59.926Z,21.14
2019-05-26T09:21:23.793Z,21.45
2019-05-26T09:25:48.652Z,21.62
2019-05-26T09:30:10.678Z,21.99
2019-05-26T09:34:32.984Z,22.33
2019-05-26T09:38:54.075Z,22.67
2019-05-26T09:43:16.511Z,22.67
2019-05-26T09:47:36.404Z,22.93
2019-05-26T09:51:57.531Z,23.20
2019-05-26T09:56:18.345Z,23.61
2019-05-26T10:00:39.964Z,23.56
2019-05-26T10:05:00.376Z,23.50
2019-05-26T10:09:20.493Z,23.36
2019-05-26T10:13:41.568Z,23.50
2019-05-26T10:18:01.927Z,23.42
2019-05-26T10:22:22.334Z,23.42
2019-05-26T10:26:43.054Z,23.49
2019-05-26T10:31:04.517Z,23.31
2019-05-26T10:35:25.066Z,23.34
2019-05-26T10:39:46.443Z,23.04
2019-05-26T10:44:06.842Z,22.96
2019-05-26T10:48:27.631Z,22.90
2019-05-26T10:52:48.250Z,22.88
2019-05-26T10:57:12.569Z,22.99
2019-05-26T11:01:33.075Z,22.92
2019-05-26T11:05:54.201Z,22.80
2019-05-26T11:10:15.199Z,22.79
2019-05-26T11:14:36.125Z,22.59
2019-05-26T11:18:56.757Z,22.52
2019-05-26T11:23:21.746Z,22.42
2019-05-26T11:27:42.414Z,22.25
2019-05-26T11:32:02.751Z,22.15
2019-05-26T11:36:23.351Z,22.32
2019-05-26T11:40:49.578Z,22.55
2019-05-26T11:45:11.137Z,22.50
2019-05-26T11:49:31.807Z,22.64
2019-05-26T12:03:56.594Z,22.49
2019-05-26T12:08:17.656Z,22.69
2019-05-26T12:12:38.150Z,22.75
2019-05-26T12:17:01.799Z,22.68
2019-05-26T12:21:22.367Z,22.76
2019-05-26T12:25:43.377Z,22.91
2019-05-26T12:30:04.297Z,23.10
2019-05-26T12:34:25.433Z,23.13
2019-05-26T12:38:49.415Z,23.10
2019-05-26T12:43:10.143Z,23.06
2019-05-26T12:47:30.863Z,23.42
2019-05-26T12:51:51.129Z,23.46
2019-05-26T12:56:11.838Z,23.61
2019-05-26T13:00:48.212Z,23.60
2019-05-26T13:04:57.102Z,23.50
2019-05-26T13:09:17.365Z,23.42
2019-05-26T13:13:19.468Z,23.39
2019-05-26T13:17:21.184Z,23.55
2019-05-26T13:21:23.573Z,23.57
2019-05-26T13:25:44.576Z,23.59
2019-05-26T13:29:46.532Z,23.76
2019-05-26T13:33:52.803Z,23.81
2019-05-26T13:37:54.798Z,23.51
2019-05-26T13:41:57.077Z,23.50
2019-05-26T13:45:59.095Z,23.66
2019-05-26T13:50:02.285Z,23.75
2019-05-26T13:54:04.636Z,23.94
2019-05-26T13:58:06.965Z,24.24
2019-05-26T14:02:09.398Z,24.03
2019-05-26T14:06:14.587Z,24.14
2019-05-26T14:10:30.778Z,24.43
2019-05-26T14:14:33.689Z,24.49
2019-05-26T14:18:35.908Z,24.27
2019-05-26T14:22:37.718Z,24.12
2019-05-26T14:26:39.921Z,24.26
2019-05-26T14:30:41.744Z,24.43
2019-05-26T14:34:43.577Z,24.33
2019-05-26T14:38:45.661Z,24.32
2019-05-26T14:42:48.025Z,24.32
2019-05-26T14:46:49.963Z,24.09
2019-05-26T14:50:54.493Z,23.60
2019-05-26T14:54:56.328Z,23.32
2019-05-26T14:58:58.512Z,23.15
2019-05-26T15:03:00.346Z,22.75
2019-05-26T15:07:03.043Z,22.70
2019-05-26T15:11:05.840Z,22.86
2019-05-26T15:15:08.524Z,23.07
2019-05-26T15:19:10.742Z,23.23
2019-05-26T15:23:13.524Z,23.38
2019-05-26T15:27:15.768Z,23.26
2019-05-26T15:31:18.501Z,23.19
2019-05-26T15:35:21.216Z,22.79
2019-05-26T15:39:25.935Z,22.47
2019-05-26T15:43:32.272Z,22.31
2019-05-26T15:47:34.953Z,22.21
2019-05-26T15:51:42.849Z,21.96
2019-05-26T15:55:47.860Z,22.07
2019-05-26T15:59:57.972Z,22.18
2019-05-26T16:04:00.171Z,22.14
2019-05-26T16:08:02.456Z,22.14
2019-05-26T16:12:04.840Z,21.87
2019-05-26T16:16:06.652Z,21.82
2019-05-26T16:20:09.952Z,21.87
2019-05-26T16:24:12.026Z,21.91
2019-05-26T16:28:14.597Z,21.92
2019-05-26T16:32:18.862Z,21.97
2019-05-26T16:36:21.383Z,22.03
2019-05-26T16:40:24.524Z,22.05
2019-05-26T16:44:26.373Z,21.95
2019-05-26T16:48:28.999Z,22.00
2019-05-26T16:52:35.524Z,22.11
2019-05-26T16:56:41.502Z,22.19
2019-05-26T17:00:43.809Z,22.39
2019-05-26T17:05:05.832Z,23.77
2019-05-26T17:09:12.983Z,25.10
2019-05-26T17:13:16.214Z,26.38
2019-05-26T17:17:18.253Z,26.22
2019-05-26T17:21:20.245Z,26.28
2019-05-26T17:25:22.843Z,26.06
2019-05-26T17:29:25.637Z,25.77
2019-05-26T17:33:27.744Z,24.36
2019-05-26T17:37:29.934Z,23.41
2019-05-26T17:41:31.715Z,22.93
2019-05-26T17:45:33.521Z,22.43
2019-05-26T17:49:36.256Z,22.16
2019-05-26T17:53:38.225Z,22.16
2019-05-26T17:57:40.622Z,22.02
2019-05-26T18:01:42.801Z,21.82
2019-05-26T18:05:45.162Z,21.84
2019-05-26T18:09:47.337Z,21.89
2019-05-26T18:13:55.438Z,21.96
2019-05-26T18:17:57.624Z,21.90
2019-05-26T18:22:00.931Z,22.02
2019-05-26T18:26:03.351Z,22.11
2019-05-26T18:30:06.531Z,21.92
2019-05-26T18:34:08.608Z,21.99
2019-05-26T18:38:11.208Z,22.02
2019-05-26T18:42:13.922Z,21.77
2019-05-26T18:46:20.854Z,21.70
2019-05-26T18:50:23.627Z,21.66
2019-05-26T18:54:25.975Z,21.69
2019-05-26T18:58:28.256Z,21.55
2019-05-26T19:02:30.421Z,21.45
2019-05-26T19:06:33.196Z,21.19
2019-05-26T19:10:36.707Z,21.16
2019-05-26T19:14:39.761Z,21.10
2019-05-26T19:18:42.658Z,21.02
2019-05-26T19:22:45.133Z,20.73
2019-05-26T19:26:47.265Z,20.68
2019-05-26T19:30:50.198Z,20.58
2019-05-26T19:34:52.133Z,20.68
2019-05-26T19:38:54.692Z,20.49
2019-05-26T19:42:57.338Z,20.60
2019-05-26T19:47:00.159Z,20.43
2019-05-26T19:51:03.602Z,20.38
2019-05-26T19:55:06.576Z,20.51
2019-05-26T19:59:08.537Z,20.43
2019-05-26T20:03:10.470Z,20.45
2019-05-26T20:07:12.372Z,20.40
2019-05-26T20:11:17.441Z,20.43
2019-05-26T20:15:22.779Z,20.40
2019-05-26T20:19:25.584Z,20.27
2019-05-26T20:23:27.557Z,20.14
2019-05-26T20:27:30.187Z,20.16
2019-05-26T20:31:32.577Z,20.09
2019-05-26T20:35:35.119Z,19.97
2019-05-26T20:39:37.599Z,20.03
2019-05-26T20:43:49.611Z,20.03
2019-05-26T20:47:51.889Z,20.01
2019-05-26T20:51:57.753Z,19.92
2019-05-26T20:56:00.179Z,20.00
2019-05-26T21:00:03.574Z,19.81
2019-05-26T21:04:06.349Z,19.76
2019-05-26T21:08:09.725Z,19.62
2019-05-26T21:12:15.356Z,19.60
2019-05-26T21:16:20.519Z,19.52
2019-05-26T21:20:22.636Z,19.29
2019-05-26T21:24:27.724Z,19.22
2019-05-26T21:28:29.596Z,19.11
2019-05-26T21:32:32.273Z,19.13
2019-05-26T21:36:35.283Z,19.10
2019-05-26T21:40:37.894Z,19.14
2019-05-26T21:44:40.304Z,19.05
2019-05-26T21:48:42.192Z,18.98
2019-05-26T21:52:44.615Z,18.91
2019-05-26T21:56:46.601Z,18.75
2019-05-26T22:00:49.526Z,18.70
2019-05-26T22:04:51.623Z,18.53
2019-05-26T22:08:54.092Z,18.37
2019-05-26T22:12:56.346Z,18.15
2019-05-26T22:16:58.397Z,18.08
2019-05-26T22:21:00.189Z,17.88
2019-05-26T22:25:02.153Z,17.88
2019-05-26T22:29:04.196Z,17.84
2019-05-26T22:33:06.691Z,17.55
2019-05-26T22:37:08.492Z,17.64
2019-05-26T22:41:10.659Z,17.43
2019-05-26T22:45:12.703Z,17.39
2019-05-26T22:49:14.833Z,17.38
2019-05-26T22:53:18.958Z,17.27
2019-05-26T22:57:21.269Z,17.23
2019-05-26T23:01:24.008Z,17.10
2019-05-26T23:05:26.258Z,17.13
2019-05-26T23:09:28.292Z,17.20
2019-05-26T23:13:30.426Z,17.23
2019-05-26T23:17:32.283Z,17.14
2019-05-26T23:21:34.422Z,17.24
2019-05-26T23:25:36.152Z,17.25
2019-05-26T23:29:38.310Z,17.05
2019-05-26T23:33:40.114Z,17.15
2019-05-26T23:37:42.018Z,17.12
2019-05-26T23:41:44.397Z,17.20
2019-05-26T23:45:46.388Z,17.30
2019-05-26T23:49:48.131Z,17.34
2019-05-26T23:53:49.993Z,17.39
